sensor_id;sensor_type;location;lat;lon;timestamp;P1;durP1;ratioP1;P2;durP2;ratioP2
68985;SDS011;56035;37.534;-122.308;2022-12-18T00:01:15;11.77;;;7.20;;
68985;SDS011;56035;37.534;-122.308;2022-12-18T00:03:46;13.23;;;7.47;;
68985;SDS011;56035;37.534;-122.308;2022-12-18T00:06:13;12.98;;;7.85;;
68985;SDS011;56035;37.534;-122.308;2022-12-18T00:08:40;13.02;;;7.07;;
68985;SDS011;56035;37.534;-122.308;2022-12-18T00:11:08;13.10;;;8.07;;
68985;SDS011;56035;37.534;-122.308;2022-12-18T00:13:36;14.60;;;8.20;;
68985;SDS011;56035;37.534;-122.308;2022-12-18T00:16:10;13.60;;;8.30;;
68985;SDS011;56035;37.534;-122.308;2022-12-18T00:18:39;12.53;;;7.43;;
68985;SDS011;56035;37.534;-122.308;2022-12-18T00:21:06;13.50;;;8.05;;
68985;SDS011;56035;37.534;-122.308;2022-12-18T00:23:34;14.43;;;7.87;;
68985;SDS011;56035;37.534;-122.308;2022-12-18T00:28:28;11.87;;;6.80;;
68985;SDS011;56035;37.534;-122.308;2022-12-18T00:31:01;9.77;;;5.47;;
68985;SDS011;56035;37.534;-122.308;2022-12-18T00:33:31;8.85;;;4.53;;
68985;SDS011;56035;37.534;-122.308;2022-12-18T00:36:02;9.50;;;5.68;;
68985;SDS011;56035;37.534;-122.308;2022-12-18T00:38:29;10.10;;;5.50;;
68985;SDS011;56035;37.534;-122.308;2022-12-18T00:40:56;8.18;;;5.10;;
68985;SDS011;56035;37.534;-122.308;2022-12-18T00:43:22;7.60;;;4.22;;
68985;SDS011;56035;37.534;-122.308;2022-12-18T00:45:48;8.57;;;5.40;;
68985;SDS011;56035;37.534;-122.308;2022-12-18T00:48:14;11.20;;;5.80;;
68985;SDS011;56035;37.534;-122.308;2022-12-18T00:50:40;9.63;;;5.65;;
68985;SDS011;56035;37.534;-122.308;2022-12-18T00:53:07;9.38;;;5.85;;
68985;SDS011;56035;37.534;-122.308;2022-12-18T00:55:37;12.07;;;5.30;;
68985;SDS011;56035;37.534;-122.308;2022-12-18T00:58:04;9.63;;;5.07;;
68985;SDS011;56035;37.534;-122.308;2022-12-18T01:00:30;9.98;;;5.32;;
68985;SDS011;56035;37.534;-122.308;2022-12-18T01:02:57;9.10;;;5.57;;
68985;SDS011;56035;37.534;-122.308;2022-12-18T01:05:23;11.82;;;5.53;;
68985;SDS011;56035;37.534;-122.308;2022-12-18T01:07:49;7.93;;;5.15;;
68985;SDS011;56035;37.534;-122.308;2022-12-18T01:10:15;10.95;;;5.53;;
68985;SDS011;56035;37.534;-122.308;2022-12-18T01:12:42;11.02;;;5.20;;
68985;SDS011;56035;37.534;-122.308;2022-12-18T01:15:09;10.80;;;5.63;;
68985;SDS011;56035;37.534;-122.308;2022-12-18T01:17:37;9.23;;;5.50;;
68985;SDS011;56035;37.534;-122.308;2022-12-18T01:20:03;11.07;;;6.05;;
68985;SDS011;56035;37.534;-122.308;2022-12-18T01:22:30;10.50;;;6.13;;
68985;SDS011;56035;37.534;-122.308;2022-12-18T01:24:56;12.25;;;6.03;;
68985;SDS011;56035;37.534;-122.308;2022-12-18T01:27:23;11.98;;;6.13;;
68985;SDS011;56035;37.534;-122.308;2022-12-18T01:29:49;12.57;;;6.50;;
68985;SDS011;56035;37.534;-122.308;2022-12-18T01:32:15;10.85;;;6.82;;
68985;SDS011;56035;37.534;-122.308;2022-12-18T01:34:41;18.63;;;7.63;;
68985;SDS011;56035;37.534;-122.308;2022-12-18T01:37:08;11.88;;;6.47;;
68985;SDS011;56035;37.534;-122.308;2022-12-18T01:39:34;15.88;;;7.38;;
68985;SDS011;56035;37.534;-122.308;2022-12-18T01:42:02;11.55;;;6.38;;
68985;SDS011;56035;37.534;-122.308;2022-12-18T01:47:28;11.70;;;7.10;;
68985;SDS011;56035;37.534;-122.308;2022-12-18T01:49:56;15.03;;;7.90;;
68985;SDS011;56035;37.534;-122.308;2022-12-18T01:52:26;13.90;;;7.10;;
68985;SDS011;56035;37.534;-122.308;2022-12-18T01:54:55;13.07;;;7.53;;
68985;SDS011;56035;37.534;-122.308;2022-12-18T01:57:23;12.47;;;7.00;;
68985;SDS011;56035;37.534;-122.308;2022-12-18T01:59:52;15.10;;;6.73;;
68985;SDS011;56035;37.534;-122.308;2022-12-18T02:02:20;13.03;;;7.03;;
68985;SDS011;56035;37.534;-122.308;2022-12-18T02:04:46;12.53;;;6.90;;
68985;SDS011;56035;37.534;-122.308;2022-12-18T02:10:31;12.37;;;7.03;;
68985;SDS011;56035;37.534;-122.308;2022-12-18T02:15:48;13.73;;;6.80;;
68985;SDS011;56035;37.534;-122.308;2022-12-18T02:18:26;11.97;;;7.03;;
68985;SDS011;56035;37.534;-122.308;2022-12-18T02:21:00;13.70;;;7.33;;
68985;SDS011;56035;37.534;-122.308;2022-12-18T02:29:16;13.87;;;7.43;;
68985;SDS011;56035;37.534;-122.308;2022-12-18T02:31:51;13.10;;;7.05;;
68985;SDS011;56035;37.534;-122.308;2022-12-18T02:34:21;12.43;;;7.03;;
68985;SDS011;56035;37.534;-122.308;2022-12-18T02:36:51;11.50;;;6.90;;
68985;SDS011;56035;37.534;-122.308;2022-12-18T02:39:20;12.07;;;7.50;;
68985;SDS011;56035;37.534;-122.308;2022-12-18T02:41:49;11.60;;;6.93;;
68985;SDS011;56035;37.534;-122.308;2022-12-18T02:44:17;12.43;;;7.07;;
68985;SDS011;56035;37.534;-122.308;2022-12-18T02:46:46;13.45;;;7.53;;
68985;SDS011;56035;37.534;-122.308;2022-12-18T02:52:41;13.90;;;7.50;;
68985;SDS011;56035;37.534;-122.308;2022-12-18T02:57:34;12.90;;;7.90;;
68985;SDS011;56035;37.534;-122.308;2022-12-18T03:00:11;11.63;;;7.53;;
68985;SDS011;56035;37.534;-122.308;2022-12-18T03:10:57;14.77;;;7.50;;
68985;SDS011;56035;37.534;-122.308;2022-12-18T03:13:28;12.87;;;7.80;;
68985;SDS011;56035;37.534;-122.308;2022-12-18T03:16:18;14.27;;;8.43;;
68985;SDS011;56035;37.534;-122.308;2022-12-18T03:18:52;15.23;;;7.87;;
68985;SDS011;56035;37.534;-122.308;2022-12-18T03:21:24;13.83;;;8.10;;
68985;SDS011;56035;37.534;-122.308;2022-12-18T03:24:06;15.90;;;8.80;;
68985;SDS011;56035;37.534;-122.308;2022-12-18T03:26:35;16.03;;;8.10;;
68985;SDS011;56035;37.534;-122.308;2022-12-18T03:29:12;16.60;;;8.27;;
68985;SDS011;56035;37.534;-122.308;2022-12-18T03:31:46;15.50;;;8.77;;
68985;SDS011;56035;37.534;-122.308;2022-12-18T03:34:28;17.43;;;7.57;;
68985;SDS011;56035;37.534;-122.308;2022-12-18T03:36:57;15.93;;;7.80;;
68985;SDS011;56035;37.534;-122.308;2022-12-18T03:39:24;13.57;;;8.00;;
68985;SDS011;56035;37.534;-122.308;2022-12-18T03:41:51;13.70;;;8.00;;
68985;SDS011;56035;37.534;-122.308;2022-12-18T03:45:02;16.67;;;8.20;;
68985;SDS011;56035;37.534;-122.308;2022-12-18T03:47:39;13.03;;;7.23;;
68985;SDS011;56035;37.534;-122.308;2022-12-18T03:50:36;12.97;;;7.30;;
68985;SDS011;56035;37.534;-122.308;2022-12-18T03:56:23;14.00;;;7.70;;
68985;SDS011;56035;37.534;-122.308;2022-12-18T03:58:54;13.97;;;8.00;;
68985;SDS011;56035;37.534;-122.308;2022-12-18T04:01:25;14.37;;;7.13;;
68985;SDS011;56035;37.534;-122.308;2022-12-18T04:03:56;16.17;;;7.63;;
68985;SDS011;56035;37.534;-122.308;2022-12-18T04:06:26;15.10;;;8.17;;
68985;SDS011;56035;37.534;-122.308;2022-12-18T04:08:53;16.43;;;7.63;;
68985;SDS011;56035;37.534;-122.308;2022-12-18T04:11:20;14.70;;;7.43;;
68985;SDS011;56035;37.534;-122.308;2022-12-18T04:13:47;13.02;;;8.43;;
68985;SDS011;56035;37.534;-122.308;2022-12-18T04:16:13;14.75;;;7.82;;
68985;SDS011;56035;37.534;-122.308;2022-12-18T04:18:39;15.38;;;7.85;;
68985;SDS011;56035;37.534;-122.308;2022-12-18T04:21:06;14.32;;;8.27;;
68985;SDS011;56035;37.534;-122.308;2022-12-18T04:23:32;16.23;;;8.52;;
68985;SDS011;56035;37.534;-122.308;2022-12-18T04:25:58;16.73;;;8.75;;
68985;SDS011;56035;37.534;-122.308;2022-12-18T04:28:24;15.05;;;8.18;;
68985;SDS011;56035;37.534;-122.308;2022-12-18T04:30:51;17.42;;;8.73;;
68985;SDS011;56035;37.534;-122.308;2022-12-18T04:33:17;17.13;;;9.45;;
68985;SDS011;56035;37.534;-122.308;2022-12-18T04:35:44;16.13;;;8.82;;
68985;SDS011;56035;37.534;-122.308;2022-12-18T04:38:10;13.95;;;8.50;;
68985;SDS011;56035;37.534;-122.308;2022-12-18T04:40:37;16.83;;;8.73;;
68985;SDS011;56035;37.534;-122.308;2022-12-18T04:45:30;18.43;;;9.50;;
68985;SDS011;56035;37.534;-122.308;2022-12-18T04:47:57;15.98;;;8.80;;
68985;SDS011;56035;37.534;-122.308;2022-12-18T04:50:24;16.13;;;8.63;;
68985;SDS011;56035;37.534;-122.308;2022-12-18T04:52:50;15.77;;;8.25;;
68985;SDS011;56035;37.534;-122.308;2022-12-18T04:55:16;17.20;;;8.93;;
68985;SDS011;56035;37.534;-122.308;2022-12-18T04:57:42;16.45;;;8.88;;
68985;SDS011;56035;37.534;-122.308;2022-12-18T05:00:08;17.10;;;8.68;;
68985;SDS011;56035;37.534;-122.308;2022-12-18T05:02:35;16.30;;;8.52;;
68985;SDS011;56035;37.534;-122.308;2022-12-18T05:05:01;15.70;;;8.43;;
68985;SDS011;56035;37.534;-122.308;2022-12-18T05:07:28;17.35;;;9.15;;
68985;SDS011;56035;37.534;-122.308;2022-12-18T05:09:54;13.13;;;6.85;;
68985;SDS011;56035;37.534;-122.308;2022-12-18T05:12:20;14.68;;;8.40;;
68985;SDS011;56035;37.534;-122.308;2022-12-18T05:14:46;14.45;;;8.70;;
68985;SDS011;56035;37.534;-122.308;2022-12-18T05:17:13;18.85;;;8.85;;
68985;SDS011;56035;37.534;-122.308;2022-12-18T05:19:39;16.60;;;8.60;;
68985;SDS011;56035;37.534;-122.308;2022-12-18T05:22:06;17.25;;;9.02;;
68985;SDS011;56035;37.534;-122.308;2022-12-18T05:24:32;15.73;;;8.43;;
68985;SDS011;56035;37.534;-122.308;2022-12-18T05:26:59;20.17;;;9.45;;
68985;SDS011;56035;37.534;-122.308;2022-12-18T05:29:25;19.15;;;8.75;;
68985;SDS011;56035;37.534;-122.308;2022-12-18T05:31:51;17.15;;;8.98;;
68985;SDS011;56035;37.534;-122.308;2022-12-18T05:34:18;15.40;;;8.55;;
68985;SDS011;56035;37.534;-122.308;2022-12-18T05:36:44;14.63;;;8.63;;
68985;SDS011;56035;37.534;-122.308;2022-12-18T05:39:10;13.75;;;7.20;;
68985;SDS011;56035;37.534;-122.308;2022-12-18T05:41:36;14.75;;;7.15;;
68985;SDS011;56035;37.534;-122.308;2022-12-18T05:44:02;13.13;;;6.90;;
68985;SDS011;56035;37.534;-122.308;2022-12-18T05:46:29;17.52;;;8.32;;
68985;SDS011;56035;37.534;-122.308;2022-12-18T05:48:55;17.42;;;8.70;;
68985;SDS011;56035;37.534;-122.308;2022-12-18T05:51:26;15.90;;;8.23;;
68985;SDS011;56035;37.534;-122.308;2022-12-18T05:56:21;18.13;;;8.83;;
68985;SDS011;56035;37.534;-122.308;2022-12-18T05:58:50;18.17;;;9.13;;
68985;SDS011;56035;37.534;-122.308;2022-12-18T06:01:20;19.20;;;9.07;;
68985;SDS011;56035;37.534;-122.308;2022-12-18T06:03:48;19.60;;;10.43;;
68985;SDS011;56035;37.534;-122.308;2022-12-18T06:06:22;20.30;;;9.80;;
68985;SDS011;56035;37.534;-122.308;2022-12-18T06:08:49;18.83;;;9.43;;
68985;SDS011;56035;37.534;-122.308;2022-12-18T06:11:18;19.08;;;10.15;;
68985;SDS011;56035;37.534;-122.308;2022-12-18T06:13:46;17.30;;;9.67;;
68985;SDS011;56035;37.534;-122.308;2022-12-18T06:16:14;19.57;;;9.10;;
68985;SDS011;56035;37.534;-122.308;2022-12-18T06:18:41;18.48;;;9.45;;
68985;SDS011;56035;37.534;-122.308;2022-12-18T06:21:07;18.83;;;9.25;;
68985;SDS011;56035;37.534;-122.308;2022-12-18T06:23:33;18.33;;;9.55;;
68985;SDS011;56035;37.534;-122.308;2022-12-18T06:26:03;18.33;;;9.45;;
68985;SDS011;56035;37.534;-122.308;2022-12-18T06:28:32;18.23;;;9.40;;
68985;SDS011;56035;37.534;-122.308;2022-12-18T06:30:58;19.50;;;10.07;;
68985;SDS011;56035;37.534;-122.308;2022-12-18T06:33:27;18.45;;;9.77;;
68985;SDS011;56035;37.534;-122.308;2022-12-18T06:35:54;19.47;;;9.70;;
68985;SDS011;56035;37.534;-122.308;2022-12-18T06:38:25;19.03;;;9.23;;
68985;SDS011;56035;37.534;-122.308;2022-12-18T06:40:51;18.45;;;10.30;;
68985;SDS011;56035;37.534;-122.308;2022-12-18T06:43:17;19.90;;;9.15;;
68985;SDS011;56035;37.534;-122.308;2022-12-18T06:45:43;19.67;;;9.90;;
68985;SDS011;56035;37.534;-122.308;2022-12-18T06:48:11;20.33;;;9.43;;
68985;SDS011;56035;37.534;-122.308;2022-12-18T06:50:41;21.25;;;9.98;;
68985;SDS011;56035;37.534;-122.308;2022-12-18T06:53:07;18.03;;;9.63;;
68985;SDS011;56035;37.534;-122.308;2022-12-18T06:55:34;22.13;;;10.32;;
68985;SDS011;56035;37.534;-122.308;2022-12-18T06:58:00;21.23;;;9.45;;
68985;SDS011;56035;37.534;-122.308;2022-12-18T07:00:26;19.23;;;9.60;;
68985;SDS011;56035;37.534;-122.308;2022-12-18T07:02:52;18.10;;;9.00;;
68985;SDS011;56035;37.534;-122.308;2022-12-18T07:05:18;16.58;;;7.88;;
68985;SDS011;56035;37.534;-122.308;2022-12-18T07:07:44;19.15;;;9.32;;
68985;SDS011;56035;37.534;-122.308;2022-12-18T07:10:11;15.68;;;7.65;;
68985;SDS011;56035;37.534;-122.308;2022-12-18T07:12:37;19.40;;;10.35;;
68985;SDS011;56035;37.534;-122.308;2022-12-18T07:15:03;22.55;;;10.38;;
68985;SDS011;56035;37.534;-122.308;2022-12-18T07:17:30;23.02;;;10.77;;
68985;SDS011;56035;37.534;-122.308;2022-12-18T07:19:56;22.27;;;11.27;;
68985;SDS011;56035;37.534;-122.308;2022-12-18T07:22:22;20.98;;;10.50;;
68985;SDS011;56035;37.534;-122.308;2022-12-18T07:24:50;28.03;;;11.77;;
68985;SDS011;56035;37.534;-122.308;2022-12-18T07:27:16;21.10;;;9.80;;
68985;SDS011;56035;37.534;-122.308;2022-12-18T07:29:42;22.75;;;10.57;;
68985;SDS011;56035;37.534;-122.308;2022-12-18T07:32:09;23.90;;;10.80;;
68985;SDS011;56035;37.534;-122.308;2022-12-18T07:34:35;20.38;;;10.52;;
68985;SDS011;56035;37.534;-122.308;2022-12-18T07:37:01;17.00;;;8.13;;
68985;SDS011;56035;37.534;-122.308;2022-12-18T07:39:27;23.88;;;11.10;;
68985;SDS011;56035;37.534;-122.308;2022-12-18T07:41:54;23.88;;;11.20;;
68985;SDS011;56035;37.534;-122.308;2022-12-18T07:44:38;24.90;;;11.53;;
68985;SDS011;56035;37.534;-122.308;2022-12-18T07:47:04;26.55;;;12.55;;
68985;SDS011;56035;37.534;-122.308;2022-12-18T07:49:31;20.80;;;9.38;;
68985;SDS011;56035;37.534;-122.308;2022-12-18T07:51:57;25.92;;;12.13;;
68985;SDS011;56035;37.534;-122.308;2022-12-18T07:54:24;19.05;;;8.70;;
68985;SDS011;56035;37.534;-122.308;2022-12-18T07:56:50;22.75;;;11.40;;
68985;SDS011;56035;37.534;-122.308;2022-12-18T07:59:17;24.30;;;12.07;;
68985;SDS011;56035;37.534;-122.308;2022-12-18T08:01:44;25.90;;;11.82;;
68985;SDS011;56035;37.534;-122.308;2022-12-18T08:04:10;25.23;;;12.07;;
68985;SDS011;56035;37.534;-122.308;2022-12-18T08:06:36;24.55;;;11.45;;
68985;SDS011;56035;37.534;-122.308;2022-12-18T08:09:02;23.10;;;11.48;;
68985;SDS011;56035;37.534;-122.308;2022-12-18T08:11:29;22.63;;;11.40;;
68985;SDS011;56035;37.534;-122.308;2022-12-18T08:13:55;26.70;;;12.13;;
68985;SDS011;56035;37.534;-122.308;2022-12-18T08:16:22;23.95;;;11.57;;
68985;SDS011;56035;37.534;-122.308;2022-12-18T08:18:48;25.48;;;11.45;;
68985;SDS011;56035;37.534;-122.308;2022-12-18T08:21:19;18.58;;;9.25;;
68985;SDS011;56035;37.534;-122.308;2022-12-18T08:23:48;27.10;;;11.40;;
68985;SDS011;56035;37.534;-122.308;2022-12-18T08:26:15;24.47;;;11.70;;
68985;SDS011;56035;37.534;-122.308;2022-12-18T08:28:42;25.15;;;11.95;;
68985;SDS011;56035;37.534;-122.308;2022-12-18T08:33:35;23.57;;;11.57;;
68985;SDS011;56035;37.534;-122.308;2022-12-18T08:36:03;26.67;;;12.23;;
68985;SDS011;56035;37.534;-122.308;2022-12-18T08:38:31;30.90;;;13.03;;
68985;SDS011;56035;37.534;-122.308;2022-12-18T08:41:08;25.07;;;12.07;;
68985;SDS011;56035;37.534;-122.308;2022-12-18T08:43:36;27.33;;;12.20;;
68985;SDS011;56035;37.534;-122.308;2022-12-18T08:46:20;28.23;;;11.80;;
68985;SDS011;56035;37.534;-122.308;2022-12-18T08:48:52;28.77;;;12.40;;
68985;SDS011;56035;37.534;-122.308;2022-12-18T08:51:23;27.17;;;12.80;;
68985;SDS011;56035;37.534;-122.308;2022-12-18T08:53:49;26.70;;;12.10;;
68985;SDS011;56035;37.534;-122.308;2022-12-18T08:56:15;28.00;;;12.70;;
68985;SDS011;56035;37.534;-122.308;2022-12-18T08:58:42;25.13;;;12.55;;
68985;SDS011;56035;37.534;-122.308;2022-12-18T09:01:09;26.10;;;12.55;;
68985;SDS011;56035;37.534;-122.308;2022-12-18T09:03:37;28.63;;;12.50;;
68985;SDS011;56035;37.534;-122.308;2022-12-18T09:08:30;26.53;;;12.60;;
68985;SDS011;56035;37.534;-122.308;2022-12-18T09:10:56;30.02;;;12.80;;
68985;SDS011;56035;37.534;-122.308;2022-12-18T09:13:23;26.77;;;12.27;;
68985;SDS011;56035;37.534;-122.308;2022-12-18T09:15:50;27.52;;;12.75;;
68985;SDS011;56035;37.534;-122.308;2022-12-18T09:18:18;28.93;;;13.00;;
68985;SDS011;56035;37.534;-122.308;2022-12-18T09:20:46;29.20;;;13.20;;
68985;SDS011;56035;37.534;-122.308;2022-12-18T09:23:12;29.33;;;13.05;;
68985;SDS011;56035;37.534;-122.308;2022-12-18T09:25:39;29.88;;;12.85;;
68985;SDS011;56035;37.534;-122.308;2022-12-18T09:30:39;23.70;;;12.33;;
68985;SDS011;56035;37.534;-122.308;2022-12-18T09:33:06;29.77;;;12.60;;
68985;SDS011;56035;37.534;-122.308;2022-12-18T09:35:35;23.75;;;11.05;;
68985;SDS011;56035;37.534;-122.308;2022-12-18T09:38:02;31.97;;;13.37;;
68985;SDS011;56035;37.534;-122.308;2022-12-18T09:40:30;35.47;;;13.85;;
68985;SDS011;56035;37.534;-122.308;2022-12-18T09:43:03;31.47;;;13.10;;
68985;SDS011;56035;37.534;-122.308;2022-12-18T09:45:31;30.40;;;13.53;;
68985;SDS011;56035;37.534;-122.308;2022-12-18T09:48:08;29.53;;;13.50;;
68985;SDS011;56035;37.534;-122.308;2022-12-18T09:50:44;31.53;;;13.60;;
68985;SDS011;56035;37.534;-122.308;2022-12-18T09:53:13;29.70;;;12.93;;
68985;SDS011;56035;37.534;-122.308;2022-12-18T09:55:45;31.17;;;13.43;;
68985;SDS011;56035;37.534;-122.308;2022-12-18T09:58:17;30.70;;;13.23;;
68985;SDS011;56035;37.534;-122.308;2022-12-18T10:00:52;29.93;;;13.33;;
68985;SDS011;56035;37.534;-122.308;2022-12-18T10:03:19;28.17;;;12.83;;
68985;SDS011;56035;37.534;-122.308;2022-12-18T10:08:27;31.17;;;13.40;;
68985;SDS011;56035;37.534;-122.308;2022-12-18T10:11:21;34.10;;;13.73;;
68985;SDS011;56035;37.534;-122.308;2022-12-18T10:13:56;33.87;;;14.40;;
68985;SDS011;56035;37.534;-122.308;2022-12-18T10:16:34;35.73;;;14.27;;
68985;SDS011;56035;37.534;-122.308;2022-12-18T10:19:20;33.00;;;14.27;;
68985;SDS011;56035;37.534;-122.308;2022-12-18T10:25:16;29.50;;;13.73;;
68985;SDS011;56035;37.534;-122.308;2022-12-18T10:28:06;32.97;;;13.70;;
68985;SDS011;56035;37.534;-122.308;2022-12-18T10:30:37;26.97;;;12.33;;
68985;SDS011;56035;37.534;-122.308;2022-12-18T10:33:05;34.50;;;14.00;;
68985;SDS011;56035;37.534;-122.308;2022-12-18T10:35:37;28.83;;;13.20;;
68985;SDS011;56035;37.534;-122.308;2022-12-18T10:40:49;36.50;;;14.60;;
68985;SDS011;56035;37.534;-122.308;2022-12-18T10:43:27;37.07;;;15.00;;
68985;SDS011;56035;37.534;-122.308;2022-12-18T10:51:07;34.60;;;15.37;;
68985;SDS011;56035;37.534;-122.308;2022-12-18T10:53:34;36.45;;;15.48;;
68985;SDS011;56035;37.534;-122.308;2022-12-18T10:56:03;37.63;;;15.93;;
68985;SDS011;56035;37.534;-122.308;2022-12-18T10:58:32;38.50;;;15.33;;
68985;SDS011;56035;37.534;-122.308;2022-12-18T11:01:13;35.33;;;15.07;;
68985;SDS011;56035;37.534;-122.308;2022-12-18T11:03:44;37.03;;;14.43;;
68985;SDS011;56035;37.534;-122.308;2022-12-18T11:06:16;41.63;;;16.67;;
68985;SDS011;56035;37.534;-122.308;2022-12-18T11:11:26;40.77;;;16.20;;
68985;SDS011;56035;37.534;-122.308;2022-12-18T11:14:01;40.70;;;16.43;;
68985;SDS011;56035;37.534;-122.308;2022-12-18T11:16:47;32.27;;;15.03;;
68985;SDS011;56035;37.534;-122.308;2022-12-18T11:19:25;40.90;;;16.23;;
68985;SDS011;56035;37.534;-122.308;2022-12-18T11:21:54;37.63;;;15.73;;
68985;SDS011;56035;37.534;-122.308;2022-12-18T11:24:26;44.07;;;17.60;;
68985;SDS011;56035;37.534;-122.308;2022-12-18T11:27:00;44.67;;;17.30;;
68985;SDS011;56035;37.534;-122.308;2022-12-18T11:29:37;44.10;;;18.10;;
68985;SDS011;56035;37.534;-122.308;2022-12-18T11:34:41;45.67;;;19.57;;
68985;SDS011;56035;37.534;-122.308;2022-12-18T11:37:11;49.17;;;18.73;;
68985;SDS011;56035;37.534;-122.308;2022-12-18T11:39:42;45.57;;;18.93;;
68985;SDS011;56035;37.534;-122.308;2022-12-18T11:42:27;52.60;;;19.30;;
68985;SDS011;56035;37.534;-122.308;2022-12-18T11:47:45;45.97;;;19.70;;
68985;SDS011;56035;37.534;-122.308;2022-12-18T11:50:19;55.13;;;20.23;;
68985;SDS011;56035;37.534;-122.308;2022-12-18T11:52:49;51.97;;;19.30;;
68985;SDS011;56035;37.534;-122.308;2022-12-18T11:55:19;47.33;;;19.73;;
68985;SDS011;56035;37.534;-122.308;2022-12-18T12:12:28;56.80;;;21.17;;
68985;SDS011;56035;37.534;-122.308;2022-12-18T12:26:29;62.30;;;22.33;;
68985;SDS011;56035;37.534;-122.308;2022-12-18T12:37:32;70.63;;;23.87;;
68985;SDS011;56035;37.534;-122.308;2022-12-18T12:40:24;67.37;;;24.40;;
68985;SDS011;56035;37.534;-122.308;2022-12-18T12:42:54;61.53;;;23.83;;
68985;SDS011;56035;37.534;-122.308;2022-12-18T12:45:50;58.37;;;23.67;;
68985;SDS011;56035;37.534;-122.308;2022-12-18T12:51:02;56.73;;;20.47;;
68985;SDS011;56035;37.534;-122.308;2022-12-18T12:53:35;53.07;;;20.03;;
68985;SDS011;56035;37.534;-122.308;2022-12-18T12:56:04;53.33;;;20.27;;
68985;SDS011;56035;37.534;-122.308;2022-12-18T13:01:13;56.60;;;20.73;;
68985;SDS011;56035;37.534;-122.308;2022-12-18T13:03:54;57.90;;;21.53;;
68985;SDS011;56035;37.534;-122.308;2022-12-18T13:06:46;57.80;;;20.97;;
68985;SDS011;56035;37.534;-122.308;2022-12-18T13:09:13;60.87;;;22.13;;
68985;SDS011;56035;37.534;-122.308;2022-12-18T13:11:40;54.47;;;21.83;;
68985;SDS011;56035;37.534;-122.308;2022-12-18T13:14:34;68.95;;;22.60;;
68985;SDS011;56035;37.534;-122.308;2022-12-18T13:17:15;61.87;;;22.70;;
68985;SDS011;56035;37.534;-122.308;2022-12-18T13:19:51;65.85;;;23.70;;
68985;SDS011;56035;37.534;-122.308;2022-12-18T13:22:35;61.77;;;22.73;;
68985;SDS011;56035;37.534;-122.308;2022-12-18T13:25:49;62.03;;;23.70;;
68985;SDS011;56035;37.534;-122.308;2022-12-18T13:28:12;60.27;;;23.17;;
68985;SDS011;56035;37.534;-122.308;2022-12-18T13:30:46;59.73;;;21.83;;
68985;SDS011;56035;37.534;-122.308;2022-12-18T13:41:01;56.07;;;21.30;;
68985;SDS011;56035;37.534;-122.308;2022-12-18T13:51:22;64.97;;;20.63;;
68985;SDS011;56035;37.534;-122.308;2022-12-18T13:53:52;60.57;;;21.63;;
68985;SDS011;56035;37.534;-122.308;2022-12-18T13:56:28;57.60;;;22.00;;
68985;SDS011;56035;37.534;-122.308;2022-12-18T14:02:26;56.77;;;20.80;;
68985;SDS011;56035;37.534;-122.308;2022-12-18T14:04:41;49.67;;;19.47;;
68985;SDS011;56035;37.534;-122.308;2022-12-18T14:07:14;64.80;;;22.40;;
68985;SDS011;56035;37.534;-122.308;2022-12-18T14:09:48;57.23;;;21.17;;
68985;SDS011;56035;37.534;-122.308;2022-12-18T14:12:27;62.53;;;22.23;;
68985;SDS011;56035;37.534;-122.308;2022-12-18T14:15:24;59.57;;;21.83;;
68985;SDS011;56035;37.534;-122.308;2022-12-18T14:17:58;56.80;;;21.80;;
68985;SDS011;56035;37.534;-122.308;2022-12-18T14:20:32;58.00;;;21.17;;
68985;SDS011;56035;37.534;-122.308;2022-12-18T14:22:59;56.37;;;21.10;;
68985;SDS011;56035;37.534;-122.308;2022-12-18T14:25:27;53.23;;;20.47;;
68985;SDS011;56035;37.534;-122.308;2022-12-18T14:30:36;56.77;;;21.40;;
68985;SDS011;56035;37.534;-122.308;2022-12-18T14:33:23;63.33;;;21.00;;
68985;SDS011;56035;37.534;-122.308;2022-12-18T14:35:55;58.03;;;20.80;;
68985;SDS011;56035;37.534;-122.308;2022-12-18T14:38:23;58.87;;;20.97;;
68985;SDS011;56035;37.534;-122.308;2022-12-18T14:41:00;62.83;;;22.87;;
68985;SDS011;56035;37.534;-122.308;2022-12-18T14:43:41;71.00;;;23.63;;
68985;SDS011;56035;37.534;-122.308;2022-12-18T14:49:02;73.53;;;24.60;;
68985;SDS011;56035;37.534;-122.308;2022-12-18T14:51:29;67.57;;;23.57;;
68985;SDS011;56035;37.534;-122.308;2022-12-18T14:53:59;62.97;;;24.47;;
68985;SDS011;56035;37.534;-122.308;2022-12-18T14:56:36;63.40;;;25.03;;
68985;SDS011;56035;37.534;-122.308;2022-12-18T14:59:13;72.13;;;24.53;;
68985;SDS011;56035;37.534;-122.308;2022-12-18T15:01:47;64.67;;;23.23;;
68985;SDS011;56035;37.534;-122.308;2022-12-18T15:07:17;69.13;;;22.93;;
68985;SDS011;56035;37.534;-122.308;2022-12-18T15:10:19;66.63;;;24.07;;
68985;SDS011;56035;37.534;-122.308;2022-12-18T15:12:46;68.60;;;23.43;;
68985;SDS011;56035;37.534;-122.308;2022-12-18T15:18:02;62.40;;;23.37;;
68985;SDS011;56035;37.534;-122.308;2022-12-18T15:23:34;67.17;;;24.83;;
68985;SDS011;56035;37.534;-122.308;2022-12-18T15:26:11;76.63;;;26.65;;
68985;SDS011;56035;37.534;-122.308;2022-12-18T15:33:59;62.90;;;21.37;;
68985;SDS011;56035;37.534;-122.308;2022-12-18T15:36:25;80.80;;;27.93;;
68985;SDS011;56035;37.534;-122.308;2022-12-18T15:38:54;92.30;;;29.53;;
68985;SDS011;56035;37.534;-122.308;2022-12-18T15:41:22;84.07;;;28.20;;
68985;SDS011;56035;37.534;-122.308;2022-12-18T15:43:49;76.93;;;27.73;;
68985;SDS011;56035;37.534;-122.308;2022-12-18T15:46:20;83.30;;;28.13;;
68985;SDS011;56035;37.534;-122.308;2022-12-18T15:48:48;77.97;;;26.50;;
68985;SDS011;56035;37.534;-122.308;2022-12-18T15:51:22;74.00;;;26.67;;
68985;SDS011;56035;37.534;-122.308;2022-12-18T15:53:54;88.10;;;28.57;;
68985;SDS011;56035;37.534;-122.308;2022-12-18T15:56:22;86.43;;;29.27;;
68985;SDS011;56035;37.534;-122.308;2022-12-18T15:59:10;98.00;;;30.73;;
68985;SDS011;56035;37.534;-122.308;2022-12-18T16:01:38;87.40;;;29.63;;
68985;SDS011;56035;37.534;-122.308;2022-12-18T16:04:05;92.20;;;32.20;;
68985;SDS011;56035;37.534;-122.308;2022-12-18T16:06:31;71.97;;;25.10;;
68985;SDS011;56035;37.534;-122.308;2022-12-18T16:08:57;78.78;;;25.58;;
68985;SDS011;56035;37.534;-122.308;2022-12-18T16:11:30;75.13;;;26.00;;
68985;SDS011;56035;37.534;-122.308;2022-12-18T16:14:05;102.20;;;33.57;;
68985;SDS011;56035;37.534;-122.308;2022-12-18T16:16:52;99.20;;;34.27;;
68985;SDS011;56035;37.534;-122.308;2022-12-18T16:19:20;117.50;;;36.20;;
68985;SDS011;56035;37.534;-122.308;2022-12-18T16:21:46;89.70;;;28.88;;
68985;SDS011;56035;37.534;-122.308;2022-12-18T16:24:15;128.33;;;38.73;;
68985;SDS011;56035;37.534;-122.308;2022-12-18T16:26:43;129.13;;;38.97;;
68985;SDS011;56035;37.534;-122.308;2022-12-18T16:29:09;136.10;;;40.85;;
68985;SDS011;56035;37.534;-122.308;2022-12-18T16:31:36;124.90;;;39.88;;
68985;SDS011;56035;37.534;-122.308;2022-12-18T16:36:35;138.93;;;39.83;;
68985;SDS011;56035;37.534;-122.308;2022-12-18T16:39:02;108.43;;;33.58;;